createdAt,value
2019-02-17T00:02:12.874Z,95.00
2019-02-17T00:04:39.750Z,94.20
2019-02-17T00:07:06.698Z,95.47
2019-02-17T00:09:33.575Z,95.39
2019-02-17T00:12:00.693Z,96.60
2019-02-17T00:14:27.562Z,96.88
2019-02-17T00:16:54.481Z,96.39
2019-02-17T00:19:21.387Z,95.31
2019-02-17T00:21:48.305Z,94.70
2019-02-17T00:24:15.190Z,95.54
2019-02-17T00:26:42.185Z,96.07
2019-02-17T00:29:09.154Z,96.23
2019-02-17T00:31:36.088Z,97.45
2019-02-17T00:34:03.001Z,97.60
2019-02-17T00:36:29.905Z,98.10
2019-02-17T00:38:56.789Z,98.73
2019-02-17T00:41:23.725Z,99.58
2019-02-17T00:43:50.780Z,99.02
2019-02-17T00:46:17.720Z,99.45
2019-02-17T00:48:45.146Z,99.48
2019-02-17T00:51:12.057Z,99.16
2019-02-17T00:53:38.950Z,98.23
2019-02-17T00:56:05.878Z,99.06
2019-02-17T00:58:32.774Z,100.00
2019-02-17T01:01:00.556Z,100.00
2019-02-17T01:03:27.477Z,100.00
2019-02-17T01:05:54.437Z,100.00
2019-02-17T01:08:21.326Z,99.94
2019-02-17T01:10:48.209Z,100.00
2019-02-17T01:13:15.144Z,100.00
2019-02-17T01:15:42.032Z,99.96
2019-02-17T01:18:08.992Z,98.34
2019-02-17T01:20:35.879Z,98.35
2019-02-17T01:23:02.787Z,99.21
2019-02-17T01:25:29.699Z,99.46
2019-02-17T01:27:56.634Z,99.52
2019-02-17T01:30:23.543Z,100.00
2019-02-17T01:32:50.480Z,100.00
2019-02-17T01:35:17.388Z,100.00
2019-02-17T01:37:44.325Z,100.00
2019-02-17T01:40:11.683Z,100.00
2019-02-17T01:42:38.613Z,100.00
2019-02-17T01:45:05.661Z,100.00
2019-02-17T01:47:32.596Z,100.00
2019-02-17T01:49:59.476Z,100.00
2019-02-17T01:52:26.388Z,100.00
2019-02-17T01:54:53.267Z,100.00
2019-02-17T01:57:20.206Z,100.00
2019-02-17T01:59:47.082Z,100.00
2019-02-17T02:02:13.999Z,100.00
2019-02-17T02:04:40.869Z,100.00
2019-02-17T02:07:07.901Z,100.00
2019-02-17T02:09:34.826Z,100.00
2019-02-17T02:12:01.801Z,100.00
2019-02-17T02:14:28.871Z,100.00
2019-02-17T02:16:55.776Z,99.97
2019-02-17T02:19:22.720Z,100.00
2019-02-17T02:21:49.604Z,100.00
2019-02-17T02:24:16.521Z,100.00
2019-02-17T02:26:43.445Z,100.00
2019-02-17T02:29:10.368Z,100.00
2019-02-17T02:31:37.260Z,100.00
2019-02-17T02:34:04.173Z,100.00
2019-02-17T02:36:31.062Z,100.00
2019-02-17T02:38:58.012Z,100.00
2019-02-17T02:41:34.192Z,100.00
2019-02-17T02:43:53.822Z,100.00
2019-02-17T02:46:20.720Z,100.00
2019-02-17T02:48:47.632Z,100.00
2019-02-17T02:51:14.527Z,100.00
2019-02-17T02:53:41.557Z,100.00
2019-02-17T02:56:08.477Z,100.00
2019-02-17T02:58:35.405Z,100.00
2019-02-17T03:01:03.330Z,100.00
2019-02-17T03:03:30.254Z,100.00
2019-02-17T03:06:11.066Z,100.00
2019-02-17T03:08:37.990Z,100.00
2019-02-17T03:11:04.883Z,100.00
2019-02-17T03:13:31.834Z,100.00
2019-02-17T03:15:58.749Z,100.00
2019-02-17T03:18:26.167Z,100.00
2019-02-17T03:20:53.059Z,99.06
2019-02-17T03:23:19.996Z,99.56
2019-02-17T03:25:46.898Z,100.00
2019-02-17T03:28:13.883Z,100.00
2019-02-17T03:30:40.789Z,100.00
2019-02-17T03:33:07.676Z,100.00
2019-02-17T03:35:34.592Z,100.00
2019-02-17T03:38:01.510Z,100.00
2019-02-17T03:40:28.528Z,99.98
2019-02-17T03:42:55.424Z,100.00
2019-02-17T03:45:22.354Z,99.76
2019-02-17T03:47:49.244Z,98.57
2019-02-17T03:50:16.159Z,99.26
2019-02-17T03:52:43.040Z,99.71
2019-02-17T03:55:09.975Z,100.00
2019-02-17T03:57:36.848Z,100.00
2019-02-17T04:00:03.887Z,100.00
2019-02-17T04:02:30.775Z,100.00
2019-02-17T04:04:57.722Z,100.00
2019-02-17T04:07:24.593Z,100.00
2019-02-17T04:09:51.820Z,100.00
2019-02-17T04:12:18.721Z,100.00
2019-02-17T04:14:45.639Z,100.00
2019-02-17T04:17:12.828Z,100.00
2019-02-17T04:19:39.785Z,100.00
2019-02-17T04:22:06.759Z,100.00
2019-02-17T04:24:33.704Z,100.00
2019-02-17T04:27:00.605Z,100.00
2019-02-17T04:29:27.523Z,100.00
2019-02-17T04:31:54.415Z,100.00
2019-02-17T04:34:21.515Z,100.00
2019-02-17T04:36:48.399Z,100.00
2019-02-17T04:39:15.356Z,100.00
2019-02-17T04:41:42.237Z,100.00
2019-02-17T04:44:09.126Z,100.00
2019-02-17T04:46:36.056Z,100.00
2019-02-17T04:49:03.074Z,100.00
2019-02-17T04:51:29.995Z,100.00
2019-02-17T04:53:56.953Z,100.00
2019-02-17T04:56:23.880Z,100.00
2019-02-17T04:58:50.762Z,100.00
2019-02-17T05:01:17.692Z,100.00
2019-02-17T05:03:44.585Z,100.00
2019-02-17T05:06:11.514Z,100.00
2019-02-17T05:08:38.433Z,100.00
2019-02-17T05:11:05.412Z,100.00
2019-02-17T05:13:32.308Z,100.00
2019-02-17T05:15:59.259Z,100.00
2019-02-17T05:18:26.472Z,100.00
2019-02-17T05:20:53.381Z,100.00
2019-02-17T05:23:20.261Z,100.00
2019-02-17T05:25:47.178Z,100.00
2019-02-17T05:28:14.073Z,100.00
2019-02-17T05:30:52.415Z,100.00
2019-02-17T05:33:09.851Z,100.00
2019-02-17T05:35:36.759Z,100.00
2019-02-17T05:38:03.643Z,100.00
2019-02-17T05:40:30.552Z,100.00
2019-02-17T05:42:57.426Z,100.00
2019-02-17T05:45:24.335Z,100.00
2019-02-17T05:47:51.213Z,100.00
2019-02-17T05:50:18.134Z,100.00
2019-02-17T05:52:45.005Z,100.00
2019-02-17T05:55:11.929Z,100.00
2019-02-17T05:57:38.786Z,100.00
2019-02-17T06:00:06.762Z,100.00
2019-02-17T06:02:33.670Z,100.00
2019-02-17T06:05:00.553Z,100.00
2019-02-17T06:07:27.462Z,100.00
2019-02-17T06:09:54.359Z,100.00
2019-02-17T06:12:21.286Z,100.00
2019-02-17T06:14:48.189Z,100.00
2019-02-17T06:17:15.111Z,100.00
2019-02-17T06:19:42.023Z,100.00
2019-02-17T06:22:08.941Z,100.00
2019-02-17T06:24:35.809Z,100.00
2019-02-17T06:27:02.767Z,100.00
2019-02-17T06:29:30.113Z,100.00
2019-02-17T06:31:57.092Z,100.00
2019-02-17T06:34:24.011Z,100.00
2019-02-17T06:36:50.926Z,100.00
2019-02-17T06:39:17.797Z,100.00
2019-02-17T06:41:44.703Z,100.00
2019-02-17T06:44:11.578Z,100.00
2019-02-17T06:46:43.157Z,100.00
2019-02-17T06:49:10.044Z,100.00
2019-02-17T06:51:36.955Z,100.00
2019-02-17T06:54:03.844Z,100.00
2019-02-17T06:56:42.452Z,100.00
2019-02-17T06:59:09.342Z,100.00
2019-02-17T07:01:36.301Z,100.00
2019-02-17T07:04:03.242Z,100.00
2019-02-17T07:06:49.805Z,100.00
2019-02-17T07:09:16.678Z,100.00
2019-02-17T07:11:43.584Z,100.00
2019-02-17T07:14:10.551Z,100.00
2019-02-17T07:16:37.465Z,100.00
2019-02-17T07:19:04.425Z,100.00
2019-02-17T07:21:31.366Z,100.00
2019-02-17T07:23:58.790Z,100.00
2019-02-17T07:26:25.672Z,100.00
2019-02-17T07:28:52.589Z,100.00
2019-02-17T07:31:19.548Z,100.00
2019-02-17T07:33:47.504Z,100.00
2019-02-17T07:36:14.409Z,100.00
2019-02-17T07:38:41.331Z,100.00
2019-02-17T07:41:08.233Z,100.00
2019-02-17T07:43:35.169Z,100.00
2019-02-17T07:46:02.067Z,100.00
2019-02-17T07:48:28.991Z,100.00
2019-02-17T07:50:56.864Z,100.00
2019-02-17T07:53:23.981Z,100.00
2019-02-17T07:55:50.921Z,100.00
2019-02-17T07:58:18.006Z,100.00
2019-02-17T08:00:45.023Z,100.00
2019-02-17T08:03:12.053Z,100.00
2019-02-17T08:05:39.058Z,100.00
2019-02-17T08:08:06.053Z,100.00
2019-02-17T08:10:32.943Z,100.00
2019-02-17T08:12:59.986Z,100.00
2019-02-17T08:15:26.898Z,100.00
2019-02-17T08:17:53.845Z,100.00
2019-02-17T08:20:20.771Z,100.00
2019-02-17T08:22:47.676Z,100.00
2019-02-17T08:25:21.470Z,100.00
2019-02-17T08:27:43.400Z,100.00
2019-02-17T08:30:11.296Z,100.00
2019-02-17T08:32:38.187Z,99.20
2019-02-17T08:35:05.400Z,98.96
2019-02-17T08:37:32.323Z,98.42
2019-02-17T08:39:59.290Z,97.97
2019-02-17T08:42:26.223Z,97.15
2019-02-17T08:44:53.131Z,97.44
2019-02-17T08:47:21.289Z,96.10
2019-02-17T08:49:51.774Z,95.10
2019-02-17T08:52:18.787Z,94.71
2019-02-17T08:54:45.742Z,92.84
2019-02-17T08:57:12.821Z,92.88
2019-02-17T08:59:39.756Z,92.00
2019-02-17T09:02:06.650Z,89.64
2019-02-17T09:04:33.588Z,88.48
2019-02-17T09:07:00.591Z,88.35
2019-02-17T09:09:27.558Z,87.38
2019-02-17T09:11:54.614Z,85.75
2019-02-17T09:14:21.557Z,85.17
2019-02-17T09:16:48.484Z,85.07
2019-02-17T09:19:15.448Z,85.75
2019-02-17T09:21:42.393Z,85.87
2019-02-17T09:24:09.440Z,85.59
2019-02-17T09:26:36.401Z,84.66
2019-02-17T09:29:03.383Z,84.49
2019-02-17T09:31:30.277Z,83.46
2019-02-17T09:33:57.231Z,82.87
2019-02-17T09:36:24.123Z,81.84
2019-02-17T09:38:51.021Z,80.97
2019-02-17T09:41:17.962Z,81.24
2019-02-17T09:43:45.631Z,80.80
2019-02-17T09:46:12.760Z,80.45
2019-02-17T09:48:40.611Z,80.22
2019-02-17T09:51:07.559Z,78.85
2019-02-17T09:53:34.486Z,78.96
2019-02-17T09:56:01.544Z,79.09
2019-02-17T09:58:28.460Z,77.56
2019-02-17T10:00:55.481Z,76.49
2019-02-17T10:03:22.393Z,76.85
2019-02-17T10:05:49.345Z,76.75
2019-02-17T10:08:16.242Z,76.43
2019-02-17T10:10:43.880Z,76.13
2019-02-17T10:13:10.823Z,75.14
2019-02-17T10:15:37.726Z,75.71
2019-02-17T10:18:04.646Z,75.49
2019-02-17T10:20:31.603Z,74.18
2019-02-17T10:22:58.553Z,75.28
2019-02-17T10:25:25.499Z,75.25
2019-02-17T10:27:52.444Z,73.98
2019-02-17T10:30:19.396Z,74.71
2019-02-17T10:32:46.292Z,73.24
2019-02-17T10:35:13.369Z,72.65
2019-02-17T10:37:40.325Z,71.41
2019-02-17T10:40:09.120Z,70.17
2019-02-17T10:42:36.095Z,69.42
2019-02-17T10:45:03.401Z,68.21
2019-02-17T10:47:30.513Z,67.50
2019-02-17T10:49:57.469Z,67.56
2019-02-17T10:52:24.452Z,67.79
2019-02-17T10:54:51.369Z,66.23
2019-02-17T10:57:18.375Z,66.08
2019-02-17T10:59:45.291Z,66.91
2019-02-17T11:02:12.232Z,67.52
2019-02-17T11:04:39.219Z,66.56
2019-02-17T11:07:06.302Z,65.66
2019-02-17T11:09:33.193Z,64.31
2019-02-17T11:12:00.290Z,64.70
2019-02-17T11:14:27.244Z,66.71
2019-02-17T11:16:54.315Z,64.88
2019-02-17T11:19:21.964Z,65.48
2019-02-17T11:21:48.907Z,62.42
2019-02-17T11:24:15.814Z,63.81
2019-02-17T11:26:42.746Z,61.10
2019-02-17T11:29:09.687Z,62.85
2019-02-17T11:31:36.651Z,59.04
2019-02-17T11:34:03.660Z,58.94
2019-02-17T11:36:30.621Z,59.72
2019-02-17T11:38:57.994Z,61.08
2019-02-17T11:41:24.935Z,58.97
2019-02-17T11:43:51.861Z,57.36
2019-02-17T11:46:18.796Z,57.03
2019-02-17T11:48:45.753Z,54.69
2019-02-17T11:51:12.700Z,55.33
2019-02-17T11:53:39.619Z,54.11
2019-02-17T11:56:06.600Z,58.28
2019-02-17T11:58:33.567Z,55.93
2019-02-17T12:01:00.489Z,53.38
2019-02-17T12:03:27.460Z,54.69
2019-02-17T12:05:54.365Z,54.71
2019-02-17T12:08:21.341Z,54.27
2019-02-17T12:10:48.272Z,55.60
2019-02-17T12:13:15.200Z,50.10
2019-02-17T12:15:42.825Z,52.27
2019-02-17T12:18:09.762Z,51.40
2019-02-17T12:21:04.705Z,51.48
2019-02-17T12:23:35.646Z,51.91
2019-02-17T12:26:06.485Z,49.53
2019-02-17T12:28:37.262Z,49.46
2019-02-17T12:31:04.323Z,48.91
2019-02-17T12:33:31.257Z,48.54
2019-02-17T12:35:58.168Z,48.38
2019-02-17T12:38:25.119Z,48.50
2019-02-17T12:40:52.034Z,47.25
2019-02-17T12:43:19.007Z,50.22
2019-02-17T12:45:45.948Z,47.07
2019-02-17T12:48:12.911Z,48.20
2019-02-17T12:50:39.859Z,46.45
2019-02-17T12:53:06.830Z,46.82
2019-02-17T12:55:33.727Z,45.03
2019-02-17T12:58:00.714Z,46.50
2019-02-17T13:00:27.637Z,45.99
2019-02-17T13:02:54.591Z,45.78
2019-02-17T13:05:21.510Z,44.96
2019-02-17T13:07:48.479Z,45.20
2019-02-17T13:10:15.444Z,44.23
2019-02-17T13:12:42.413Z,45.73
2019-02-17T13:15:10.003Z,46.09
2019-02-17T13:17:36.997Z,43.77
2019-02-17T13:20:04.921Z,44.59
2019-02-17T13:22:31.880Z,46.71
2019-02-17T13:24:58.779Z,42.46
2019-02-17T13:27:25.742Z,43.05
2019-02-17T13:29:52.663Z,43.46
2019-02-17T13:32:19.575Z,44.67
2019-02-17T13:34:46.549Z,43.27
2019-02-17T13:37:13.473Z,42.04
2019-02-17T13:39:40.542Z,43.27
2019-02-17T13:42:07.449Z,43.17
2019-02-17T13:44:34.386Z,42.71
2019-02-17T13:47:01.318Z,41.70
2019-02-17T13:49:28.309Z,43.08
2019-02-17T13:51:55.227Z,42.06
2019-02-17T13:54:22.168Z,43.38
2019-02-17T13:56:49.103Z,42.22
2019-02-17T13:59:16.024Z,42.88
2019-02-17T14:01:42.942Z,42.33
2019-02-17T14:04:09.887Z,42.96
2019-02-17T14:06:36.790Z,43.11
2019-02-17T14:09:04.897Z,43.11
2019-02-17T14:11:31.812Z,45.25
2019-02-17T14:13:58.826Z,44.41
2019-02-17T14:16:25.766Z,44.22
2019-02-17T14:18:52.794Z,44.12
2019-02-17T14:21:19.765Z,44.21
2019-02-17T14:23:46.759Z,43.10
2019-02-17T14:26:13.710Z,43.19
2019-02-17T14:28:40.656Z,43.12
2019-02-17T14:31:07.613Z,44.75
2019-02-17T14:33:34.604Z,44.17
2019-02-17T14:36:01.583Z,43.85
2019-02-17T14:38:28.551Z,43.47
2019-02-17T14:40:55.548Z,43.72
2019-02-17T14:43:22.459Z,44.02
2019-02-17T14:45:49.401Z,45.51
2019-02-17T14:48:16.352Z,45.15
2019-02-17T14:50:43.292Z,45.87
2019-02-17T14:53:10.194Z,45.08
2019-02-17T14:55:37.208Z,45.15
2019-02-17T14:58:05.744Z,45.36
2019-02-17T15:00:32.906Z,46.36
2019-02-17T15:02:59.819Z,46.43
2019-02-17T15:05:26.750Z,47.18
2019-02-17T15:07:53.728Z,46.78
2019-02-17T15:10:20.728Z,46.77
2019-02-17T15:12:47.630Z,49.13
2019-02-17T15:15:14.592Z,48.24
2019-02-17T15:17:41.581Z,48.38
2019-02-17T15:20:10.144Z,49.46
2019-02-17T15:22:37.094Z,48.59
2019-02-17T15:25:04.871Z,48.94
2019-02-17T15:27:31.827Z,49.72
2019-02-17T15:29:58.979Z,48.68
2019-02-17T15:32:26.009Z,48.81
2019-02-17T15:34:52.990Z,49.41
2019-02-17T15:37:19.931Z,49.27
2019-02-17T15:39:47.268Z,50.61
2019-02-17T15:42:14.190Z,49.73
2019-02-17T15:44:41.139Z,51.40
2019-02-17T15:47:08.080Z,52.12
2019-02-17T15:49:35.130Z,51.91
2019-02-17T15:52:02.104Z,52.15
2019-02-17T15:54:29.140Z,52.95
2019-02-17T15:56:56.121Z,53.50
2019-02-17T15:59:23.121Z,54.12
2019-02-17T16:01:50.066Z,53.71
2019-02-17T16:04:17.069Z,54.39
2019-02-17T16:06:44.043Z,55.20
2019-02-17T16:09:10.968Z,55.29
2019-02-17T16:11:37.944Z,54.39
2019-02-17T16:14:05.040Z,54.94
2019-02-17T16:16:32.034Z,55.41
2019-02-17T16:18:59.001Z,56.28
2019-02-17T16:21:25.968Z,56.48
2019-02-17T16:23:52.887Z,57.62
2019-02-17T16:26:19.958Z,57.68
2019-02-17T16:28:46.900Z,58.19
2019-02-17T16:31:13.970Z,56.91
2019-02-17T16:33:40.907Z,57.25
2019-02-17T16:36:07.932Z,58.74
2019-02-17T16:38:35.152Z,58.74
2019-02-17T16:41:02.215Z,58.92
2019-02-17T16:43:29.268Z,58.87
2019-02-17T16:45:56.505Z,60.10
2019-02-17T16:48:23.407Z,60.94
2019-02-17T16:50:50.392Z,62.50
2019-02-17T16:53:17.327Z,63.17
2019-02-17T16:55:44.287Z,64.16
2019-02-17T16:58:11.224Z,64.35
2019-02-17T17:00:38.175Z,65.95
2019-02-17T17:03:05.244Z,66.83
2019-02-17T17:05:32.242Z,67.73
2019-02-17T17:07:59.242Z,68.31
2019-02-17T17:10:26.173Z,68.76
2019-02-17T17:12:53.076Z,69.24
2019-02-17T17:15:20.079Z,70.48
2019-02-17T17:17:47.007Z,70.81
2019-02-17T17:20:14.526Z,71.18
2019-02-17T17:22:41.524Z,71.40
2019-02-17T17:25:08.556Z,71.48
2019-02-17T17:27:35.577Z,72.25
2019-02-17T17:30:02.575Z,71.76
2019-02-17T17:32:29.532Z,72.56
2019-02-17T17:34:58.907Z,71.40
2019-02-17T17:37:25.331Z,71.65
2019-02-17T17:39:52.274Z,72.39
2019-02-17T17:42:19.209Z,71.99
2019-02-17T17:44:46.124Z,72.72
2019-02-17T17:47:13.101Z,72.58
2019-02-17T17:49:39.989Z,72.88
2019-02-17T17:52:06.934Z,73.39
2019-02-17T17:54:33.842Z,72.27
2019-02-17T17:57:00.779Z,72.50
2019-02-17T17:59:27.748Z,72.15
2019-02-17T18:01:54.802Z,72.02
2019-02-17T18:04:21.733Z,71.36
2019-02-17T18:06:48.745Z,71.92
2019-02-17T18:09:15.655Z,71.42
2019-02-17T18:11:42.597Z,70.37
2019-02-17T18:14:09.510Z,70.16
2019-02-17T18:16:36.449Z,70.21
2019-02-17T18:19:03.366Z,70.25
2019-02-17T18:21:30.326Z,70.10
2019-02-17T18:23:57.298Z,70.27
2019-02-17T18:26:24.231Z,70.16
2019-02-17T18:28:51.162Z,70.24
2019-02-17T18:31:18.285Z,70.31
2019-02-17T18:33:45.200Z,70.71
2019-02-17T18:36:12.227Z,70.92
2019-02-17T18:38:39.190Z,70.94
2019-02-17T18:41:06.117Z,71.51
2019-02-17T18:43:33.200Z,72.00
2019-02-17T18:46:00.147Z,72.38
2019-02-17T18:48:27.164Z,73.21
2019-02-17T18:50:59.179Z,73.64
2019-02-17T18:53:22.977Z,74.46
2019-02-17T18:55:49.918Z,74.57
2019-02-17T18:58:16.887Z,74.85
2019-02-17T19:00:44.026Z,74.50
2019-02-17T19:03:10.993Z,74.70
2019-02-17T19:05:38.103Z,75.07
2019-02-17T19:08:05.036Z,75.21
2019-02-17T19:10:31.981Z,75.85
2019-02-17T19:12:58.972Z,75.82
2019-02-17T19:15:25.883Z,77.08
2019-02-17T19:17:52.901Z,75.81
2019-02-17T19:20:19.931Z,77.14
2019-02-17T19:22:47.045Z,77.09
2019-02-17T19:25:13.972Z,78.03
2019-02-17T19:27:40.965Z,78.92
2019-02-17T19:30:09.970Z,79.74
2019-02-17T19:32:37.383Z,80.20
2019-02-17T19:35:05.853Z,80.19
2019-02-17T19:37:32.828Z,81.07
2019-02-17T19:40:00.327Z,80.12
2019-02-17T19:42:27.990Z,81.49
2019-02-17T19:44:54.940Z,80.98
2019-02-17T19:47:21.881Z,81.45
2019-02-17T19:49:48.780Z,80.59
2019-02-17T19:52:15.723Z,80.88
2019-02-17T19:54:48.607Z,80.51
2019-02-17T19:57:15.732Z,80.42
2019-02-17T19:59:44.669Z,80.62
2019-02-17T20:02:12.638Z,81.25
2019-02-17T20:04:45.663Z,82.07
2019-02-17T20:07:14.159Z,82.45
2019-02-17T20:09:41.232Z,81.89
2019-02-17T20:12:08.298Z,81.99
2019-02-17T20:14:35.559Z,81.03
2019-02-17T20:17:02.718Z,82.29
2019-02-17T20:19:29.975Z,81.51
2019-02-17T20:21:56.962Z,81.90
2019-02-17T20:24:24.030Z,82.16
2019-02-17T20:26:51.036Z,82.66
2019-02-17T20:29:17.995Z,82.30
2019-02-17T20:31:45.033Z,83.28
2019-02-17T20:34:14.493Z,83.10
2019-02-17T20:36:40.893Z,84.46
2019-02-17T20:39:08.557Z,85.17
2019-02-17T20:41:35.522Z,84.85
2019-02-17T20:44:02.531Z,84.48
2019-02-17T20:46:29.485Z,84.04
2019-02-17T20:48:56.444Z,84.82
2019-02-17T20:51:23.846Z,84.39
2019-02-17T20:53:50.832Z,84.98
2019-02-17T20:56:17.777Z,85.54
2019-02-17T20:58:44.778Z,85.27
2019-02-17T21:01:11.745Z,85.04
2019-02-17T21:03:38.759Z,86.66
2019-02-17T21:06:12.526Z,85.15
2019-02-17T21:08:34.695Z,85.36
2019-02-17T21:11:01.611Z,85.27
2019-02-17T21:13:28.569Z,84.88
2019-02-17T21:15:55.463Z,87.25
2019-02-17T21:18:22.408Z,86.90
2019-02-17T21:20:49.338Z,86.77
2019-02-17T21:23:16.302Z,87.82
2019-02-17T21:25:43.212Z,86.61
2019-02-17T21:28:10.167Z,86.55
2019-02-17T21:30:37.112Z,87.25
2019-02-17T21:33:04.155Z,86.08
2019-02-17T21:35:31.096Z,88.05
2019-02-17T21:37:58.009Z,87.20
2019-02-17T21:40:24.950Z,88.08
2019-02-17T21:42:51.852Z,88.22
2019-02-17T21:45:18.791Z,88.11
2019-02-17T21:47:45.991Z,89.58
2019-02-17T21:50:12.941Z,89.68
2019-02-17T21:52:41.798Z,90.54
2019-02-17T21:55:09.111Z,89.28
2019-02-17T21:57:36.012Z,90.58
2019-02-17T22:00:04.041Z,91.44
2019-02-17T22:02:30.945Z,91.09
2019-02-17T22:04:57.882Z,90.45
2019-02-17T22:07:24.791Z,90.61
2019-02-17T22:09:51.750Z,90.62
2019-02-17T22:12:18.677Z,91.18
2019-02-17T22:14:45.606Z,91.26
2019-02-17T22:17:12.517Z,91.98
2019-02-17T22:19:39.501Z,92.03
2019-02-17T22:22:06.593Z,92.00
2019-02-17T22:24:33.621Z,92.16
2019-02-17T22:27:00.537Z,92.26
2019-02-17T22:29:27.508Z,92.82
2019-02-17T22:31:54.439Z,93.08
2019-02-17T22:34:21.431Z,93.14
2019-02-17T22:36:48.335Z,92.80
2019-02-17T22:39:15.316Z,93.64
2019-02-17T22:41:42.239Z,92.92
2019-02-17T22:44:09.178Z,92.42
2019-02-17T22:46:36.094Z,91.23
2019-02-17T22:49:03.150Z,90.93
2019-02-17T22:51:30.076Z,91.59
2019-02-17T22:53:57.082Z,92.52
2019-02-17T22:56:23.985Z,92.76
2019-02-17T22:58:50.872Z,93.11
2019-02-17T23:01:22.945Z,92.71
2019-02-17T23:03:49.841Z,93.05
2019-02-17T23:06:16.809Z,94.05
2019-02-17T23:08:43.734Z,93.69
2019-02-17T23:11:10.681Z,92.80
2019-02-17T23:13:37.620Z,92.58
2019-02-17T23:16:04.549Z,92.88
2019-02-17T23:18:31.545Z,93.78
2019-02-17T23:20:58.488Z,93.55
2019-02-17T23:23:25.470Z,93.62
2019-02-17T23:25:52.377Z,93.65
2019-02-17T23:28:19.266Z,93.41
2019-02-17T23:30:46.204Z,93.90
2019-02-17T23:33:13.113Z,93.34
2019-02-17T23:35:40.077Z,93.08
2019-02-17T23:38:07.088Z,93.80
2019-02-17T23:40:34.030Z,93.02
2019-02-17T23:43:00.940Z,93.07
2019-02-17T23:45:27.963Z,93.75
2019-02-17T23:47:54.865Z,92.84
2019-02-17T23:50:21.780Z,92.77
2019-02-17T23:52:48.760Z,93.85
2019-02-17T23:55:15.698Z,93.50
2019-02-17T23:57:42.614Z,94.08
